createdAt,value
2023-01-20T00:01:14.956Z,100504.50
2023-01-20T00:03:44.328Z,100507.06
2023-01-20T00:06:12.387Z,100512.72
2023-01-20T00:08:40.598Z,100515.81
2023-01-20T00:11:10.175Z,100519.09
2023-01-20T00:13:38.404Z,100519.41
2023-01-20T00:16:07.666Z,100527.50
2023-01-20T00:18:37.053Z,100529.13
2023-01-20T00:21:05.285Z,100528.81
2023-01-20T00:23:33.310Z,100532.00
2023-01-20T00:26:05.218Z,100528.13
2023-01-20T00:28:32.819Z,100527.50
2023-01-20T00:31:00.623Z,100531.44
2023-01-20T00:33:28.185Z,100539.59
2023-01-20T00:35:57.028Z,100533.34
2023-01-20T00:38:24.551Z,100532.72
2023-01-20T00:40:54.920Z,100537.06
2023-01-20T00:43:22.474Z,100537.50
2023-01-20T00:45:50.061Z,100538.00
2023-01-20T00:48:17.660Z,100535.09
2023-01-20T00:50:45.218Z,100543.56
2023-01-20T00:53:14.057Z,100543.56
2023-01-20T00:55:41.631Z,100547.13
2023-01-20T00:58:09.243Z,100555.94
2023-01-20T01:00:36.897Z,100561.81
2023-01-20T01:03:05.380Z,100555.31
2023-01-20T01:05:33.002Z,100564.19
2023-01-20T01:08:00.664Z,100568.13
2023-01-20T01:10:29.509Z,100573.44
2023-01-20T01:12:57.030Z,100572.25
2023-01-20T01:15:24.539Z,100578.66
2023-01-20T01:17:52.854Z,100583.38
2023-01-20T01:20:20.475Z,100587.50
2023-01-20T01:22:47.977Z,100586.59
2023-01-20T01:25:15.940Z,100591.41
2023-01-20T01:27:44.951Z,100594.19
2023-01-20T01:30:13.388Z,100588.97
2023-01-20T01:32:40.940Z,100592.19
2023-01-20T01:35:09.223Z,100596.41
2023-01-20T01:37:36.751Z,100601.97
2023-01-20T01:40:04.837Z,100607.44
2023-01-20T01:42:32.403Z,100603.91
2023-01-20T01:45:31.379Z,100605.09
2023-01-20T01:48:04.021Z,100612.88
2023-01-20T01:50:36.905Z,100613.88
2023-01-20T01:53:05.745Z,100610.91
2023-01-20T01:55:37.420Z,100616.63
2023-01-20T01:58:07.659Z,100625.72
2023-01-20T02:00:36.591Z,100626.03
2023-01-20T02:03:05.443Z,100633.69
2023-01-20T02:05:33.883Z,100644.28
2023-01-20T02:08:01.874Z,100641.44
2023-01-20T02:10:30.060Z,100643.84
2023-01-20T02:12:58.199Z,100646.31
2023-01-20T02:15:28.267Z,100654.19
2023-01-20T02:18:14.230Z,100657.59
2023-01-20T02:21:10.258Z,100665.31
2023-01-20T02:23:59.412Z,100667.53
2023-01-20T02:26:46.937Z,100664.34
2023-01-20T02:29:54.575Z,100672.56
2023-01-20T02:32:39.200Z,100672.78
2023-01-20T02:35:12.574Z,100680.31
2023-01-20T02:37:48.895Z,100673.91
2023-01-20T02:40:29.786Z,100693.66
2023-01-20T02:43:07.559Z,100677.59
2023-01-20T02:45:43.481Z,100686.47
2023-01-20T02:48:21.528Z,100696.75
2023-01-20T02:50:59.274Z,100698.56
2023-01-20T02:53:33.262Z,100696.41
2023-01-20T02:56:00.868Z,100695.56
2023-01-20T02:58:37.980Z,100698.03
2023-01-20T03:01:12.573Z,100696.06
2023-01-20T03:03:46.822Z,100702.75
2023-01-20T03:06:19.414Z,100698.63
2023-01-20T03:08:51.671Z,100703.34
2023-01-20T03:11:19.755Z,100708.03
2023-01-20T03:13:52.129Z,100704.72
2023-01-20T03:16:22.426Z,100707.88
2023-01-20T03:18:52.535Z,100710.16
2023-01-20T03:21:20.287Z,100714.28
2023-01-20T03:23:51.374Z,100716.81
2023-01-20T03:26:22.465Z,100713.75
2023-01-20T03:28:50.826Z,100716.31
2023-01-20T03:31:20.801Z,100720.13
2023-01-20T03:33:52.445Z,100726.00
2023-01-20T03:36:22.625Z,100725.34
2023-01-20T03:38:50.863Z,100736.66
2023-01-20T03:41:27.492Z,100732.22
2023-01-20T03:44:03.936Z,100729.91
2023-01-20T03:46:43.079Z,100729.16
2023-01-20T03:49:20.376Z,100743.53
2023-01-20T03:51:57.450Z,100731.88
2023-01-20T03:54:29.361Z,100749.03
2023-01-20T03:57:04.160Z,100741.13
2023-01-20T03:59:35.141Z,100743.34
2023-01-20T04:02:05.246Z,100746.41
2023-01-20T04:04:36.657Z,100738.78
2023-01-20T04:07:06.251Z,100756.81
2023-01-20T04:09:37.555Z,100754.69
2023-01-20T04:12:05.502Z,100756.56
2023-01-20T04:14:35.280Z,100764.69
2023-01-20T04:17:04.879Z,100769.97
2023-01-20T04:19:32.585Z,100769.16
2023-01-20T04:22:06.557Z,100771.25
2023-01-20T04:24:39.137Z,100783.88
2023-01-20T04:27:06.650Z,100782.66
2023-01-20T04:29:34.176Z,100779.31
2023-01-20T04:32:02.963Z,100790.34
2023-01-20T04:34:30.758Z,100795.31
2023-01-20T04:36:58.307Z,100797.72
2023-01-20T04:39:27.233Z,100795.66
2023-01-20T04:41:54.816Z,100808.16
2023-01-20T04:44:22.801Z,100811.03
2023-01-20T04:46:50.331Z,100807.66
2023-01-20T04:49:17.865Z,100816.91
2023-01-20T04:51:45.392Z,100818.03
2023-01-20T04:54:12.944Z,100828.75
2023-01-20T04:56:41.849Z,100825.72
2023-01-20T04:59:09.388Z,100832.59
2023-01-20T05:01:37.000Z,100829.84
2023-01-20T05:04:04.609Z,100829.31
2023-01-20T05:06:32.310Z,100830.69
2023-01-20T05:08:59.866Z,100845.94
2023-01-20T05:11:27.479Z,100845.19
2023-01-20T05:13:56.326Z,100853.91
2023-01-20T05:16:25.897Z,100858.03
2023-01-20T05:18:53.433Z,100859.28
2023-01-20T05:21:20.970Z,100861.09
2023-01-20T05:23:48.478Z,100868.44
2023-01-20T05:26:16.333Z,100864.38
2023-01-20T05:28:45.560Z,100867.97
2023-01-20T05:31:14.478Z,100869.34
2023-01-20T05:33:42.191Z,100879.50
2023-01-20T05:36:10.996Z,100885.25
2023-01-20T05:38:38.863Z,100886.81
2023-01-20T05:41:08.496Z,100889.16
2023-01-20T05:43:36.601Z,100888.19
2023-01-20T05:46:04.457Z,100892.16
2023-01-20T05:48:33.553Z,100897.97
2023-01-20T05:51:01.216Z,100903.00
2023-01-20T05:53:28.847Z,100904.09
2023-01-20T05:56:00.615Z,100902.59
2023-01-20T05:58:28.604Z,100902.41
2023-01-20T06:00:56.263Z,100909.75
2023-01-20T06:03:23.811Z,100913.22
2023-01-20T06:05:52.698Z,100917.22
2023-01-20T06:08:20.264Z,100929.28
2023-01-20T06:10:50.415Z,100927.19
2023-01-20T06:13:18.073Z,100937.25
2023-01-20T06:15:45.710Z,100936.03
2023-01-20T06:18:13.316Z,100936.31
2023-01-20T06:20:40.822Z,100937.00
2023-01-20T06:23:09.659Z,100942.44
2023-01-20T06:25:37.238Z,100950.00
2023-01-20T06:28:05.116Z,100944.81
2023-01-20T06:30:32.795Z,100953.78
2023-01-20T06:33:00.465Z,100960.00
2023-01-20T06:35:28.348Z,100968.16
2023-01-20T06:37:58.935Z,100970.25
2023-01-20T06:40:28.387Z,100972.31
2023-01-20T06:42:58.516Z,100973.56
2023-01-20T06:45:26.415Z,100981.59
2023-01-20T06:47:53.967Z,100980.47
2023-01-20T06:50:21.562Z,100979.63
2023-01-20T06:52:49.056Z,100985.19
2023-01-20T06:55:17.168Z,100996.38
2023-01-20T06:57:46.215Z,100985.09
2023-01-20T07:00:14.969Z,100995.31
2023-01-20T07:02:42.502Z,100997.09
2023-01-20T07:05:11.322Z,101003.03
2023-01-20T07:07:38.805Z,101011.72
2023-01-20T07:10:07.411Z,101014.09
2023-01-20T07:12:34.961Z,101015.19
2023-01-20T07:15:04.073Z,101010.19
2023-01-20T07:17:31.606Z,101012.34
2023-01-20T07:19:59.120Z,101024.00
2023-01-20T07:22:26.606Z,101032.19
2023-01-20T07:24:54.161Z,101036.63
2023-01-20T07:27:21.670Z,101046.31
2023-01-20T07:29:49.293Z,101050.06
2023-01-20T07:32:18.152Z,101048.81
2023-01-20T07:34:45.688Z,101050.31
2023-01-20T07:37:13.185Z,101063.63
2023-01-20T07:39:40.794Z,101057.22
2023-01-20T07:42:08.485Z,101072.91
2023-01-20T07:44:37.083Z,101078.56
2023-01-20T07:47:04.691Z,101077.91
2023-01-20T07:49:33.535Z,101088.03
2023-01-20T07:52:01.145Z,101090.66
2023-01-20T07:54:28.646Z,101105.19
2023-01-20T07:56:56.171Z,101100.06
2023-01-20T07:59:23.679Z,101112.78
2023-01-20T08:01:51.255Z,101113.34
2023-01-20T08:04:18.917Z,101117.38
2023-01-20T08:06:48.120Z,101119.28
2023-01-20T08:09:16.017Z,101121.97
2023-01-20T08:11:43.644Z,101130.22
2023-01-20T08:14:11.260Z,101138.69
2023-01-20T08:16:38.844Z,101142.84
2023-01-20T08:19:06.399Z,101140.47
2023-01-20T08:21:34.667Z,101139.38
2023-01-20T08:24:06.417Z,101143.69
2023-01-20T08:26:34.874Z,101153.63
2023-01-20T08:29:04.003Z,101161.69
2023-01-20T08:31:32.030Z,101157.53
2023-01-20T08:34:00.097Z,101155.34
2023-01-20T08:36:30.991Z,101162.53
2023-01-20T08:38:59.993Z,101166.66
2023-01-20T08:41:31.709Z,101166.38
2023-01-20T08:44:00.490Z,101169.75
2023-01-20T08:46:28.453Z,101172.31
2023-01-20T08:48:56.190Z,101170.97
2023-01-20T08:51:26.983Z,101180.66
2023-01-20T08:53:54.761Z,101190.56
2023-01-20T08:56:22.687Z,101186.31
2023-01-20T08:58:51.649Z,101193.63
2023-01-20T09:01:21.395Z,101197.38
2023-01-20T09:04:03.351Z,101200.97
2023-01-20T09:06:32.056Z,101206.63
2023-01-20T09:08:59.612Z,101216.44
2023-01-20T09:11:27.330Z,101215.91
2023-01-20T09:13:57.484Z,101217.84
2023-01-20T09:16:25.190Z,101215.31
2023-01-20T09:18:52.748Z,101218.00
2023-01-20T09:21:20.319Z,101218.41
2023-01-20T09:23:48.269Z,101217.38
2023-01-20T09:26:33.451Z,101227.25
2023-01-20T09:29:09.044Z,101231.44
2023-01-20T09:31:37.216Z,101243.41
2023-01-20T09:34:04.990Z,101242.81
2023-01-20T09:36:32.774Z,101255.88
2023-01-20T09:39:19.352Z,101249.19
2023-01-20T09:42:06.923Z,101262.38
2023-01-20T09:44:47.725Z,101252.00
2023-01-20T09:47:28.630Z,101257.50
2023-01-20T09:50:36.189Z,101271.09
2023-01-20T09:53:08.030Z,101270.25
2023-01-20T09:55:43.995Z,101264.84
2023-01-20T09:58:21.286Z,101267.91
2023-01-20T10:00:54.281Z,101279.41
2023-01-20T10:03:29.681Z,101286.91
2023-01-20T10:06:00.593Z,101285.78
2023-01-20T10:08:35.450Z,101277.72
2023-01-20T10:11:07.140Z,101287.59
2023-01-20T10:13:47.046Z,101288.28
2023-01-20T10:16:25.350Z,101286.63
2023-01-20T10:18:56.683Z,101286.59
2023-01-20T10:21:32.383Z,101286.31
2023-01-20T10:24:05.045Z,101293.13
2023-01-20T10:26:38.651Z,101292.09
2023-01-20T10:29:10.791Z,101290.50
2023-01-20T10:31:44.094Z,101281.25
2023-01-20T10:34:18.153Z,101286.84
2023-01-20T10:36:50.656Z,101293.84
2023-01-20T10:39:27.231Z,101287.50
2023-01-20T10:42:03.296Z,101288.47
2023-01-20T10:44:35.394Z,101295.84
2023-01-20T10:47:24.955Z,101284.94
2023-01-20T10:50:16.689Z,101301.81
2023-01-20T10:53:13.722Z,101302.22
2023-01-20T10:55:55.484Z,101311.56
2023-01-20T10:58:26.939Z,101314.75
2023-01-20T11:00:55.717Z,101314.44
2023-01-20T11:03:26.792Z,101317.75
2023-01-20T11:05:54.349Z,101332.38
2023-01-20T11:08:25.219Z,101334.06
2023-01-20T11:10:55.745Z,101330.03
2023-01-20T11:13:23.511Z,101335.19
2023-01-20T11:15:56.219Z,101332.09
2023-01-20T11:18:28.789Z,101347.22
2023-01-20T11:21:00.468Z,101345.88
2023-01-20T11:23:35.832Z,101341.66
2023-01-20T11:26:09.787Z,101344.78
2023-01-20T11:28:56.203Z,101344.03
2023-01-20T11:31:36.347Z,101348.69
2023-01-20T11:34:22.472Z,101345.25
2023-01-20T11:36:50.289Z,101352.19
2023-01-20T11:39:30.305Z,101348.19
2023-01-20T11:42:13.028Z,101353.38
2023-01-20T11:44:44.261Z,101353.22
2023-01-20T11:47:24.413Z,101352.44
2023-01-20T11:50:28.121Z,101361.09
2023-01-20T11:53:13.097Z,101355.53
2023-01-20T11:55:47.664Z,101358.56
2023-01-20T11:58:18.979Z,101365.16
2023-01-20T12:00:47.320Z,101363.06
2023-01-20T12:03:45.963Z,101362.34
2023-01-20T12:06:20.072Z,101357.19
2023-01-20T12:08:50.876Z,101366.09
2023-01-20T12:11:24.202Z,101364.66
2023-01-20T12:14:24.713Z,101361.88
2023-01-20T12:17:01.368Z,101368.09
2023-01-20T12:19:37.537Z,101369.63
2023-01-20T12:22:14.443Z,101377.06
2023-01-20T12:25:10.254Z,101385.56
2023-01-20T12:27:44.032Z,101378.88
2023-01-20T12:30:44.229Z,101378.97
2023-01-20T12:33:24.444Z,101374.16
2023-01-20T12:36:10.612Z,101380.94
2023-01-20T12:38:49.060Z,101385.69
2023-01-20T12:41:24.640Z,101395.13
2023-01-20T12:44:02.193Z,101387.88
2023-01-20T12:46:38.073Z,101388.00
2023-01-20T12:49:29.891Z,101387.50
2023-01-20T12:52:10.880Z,101392.72
2023-01-20T12:54:55.000Z,101391.38
2023-01-20T12:57:35.761Z,101397.41
2023-01-20T13:00:24.669Z,101402.66
2023-01-20T13:03:21.955Z,101402.22
2023-01-20T13:06:05.908Z,101405.38
2023-01-20T13:08:41.857Z,101406.59
2023-01-20T13:11:22.131Z,101417.47
2023-01-20T13:14:08.358Z,101424.88
2023-01-20T13:16:45.526Z,101428.06
2023-01-20T13:19:16.284Z,101433.22
2023-01-20T13:21:44.042Z,101433.59
2023-01-20T13:24:19.019Z,101443.31
2023-01-20T13:26:49.893Z,101444.28
2023-01-20T13:29:41.002Z,101451.94
2023-01-20T13:32:44.955Z,101450.53
2023-01-20T13:35:43.798Z,101462.44
2023-01-20T13:38:20.855Z,101464.53
2023-01-20T13:40:58.498Z,101467.78
2023-01-20T13:43:46.617Z,101467.91
2023-01-20T13:46:47.165Z,101473.56
2023-01-20T13:49:31.895Z,101471.06
2023-01-20T13:51:59.459Z,101476.88
2023-01-20T13:54:46.845Z,101481.50
2023-01-20T13:57:44.433Z,101483.22
2023-01-20T14:00:19.203Z,101493.81
2023-01-20T14:02:49.423Z,101504.75
2023-01-20T14:05:32.259Z,101511.78
2023-01-20T14:08:00.510Z,101515.69
2023-01-20T14:10:28.976Z,101513.25
2023-01-20T14:12:56.516Z,101520.88
2023-01-20T14:15:28.835Z,101525.63
2023-01-20T14:17:58.548Z,101529.41
2023-01-20T14:20:28.172Z,101538.13
2023-01-20T14:22:55.722Z,101541.63
2023-01-20T14:25:25.608Z,101549.44
2023-01-20T14:27:53.824Z,101549.56
2023-01-20T14:30:24.437Z,101563.22
2023-01-20T14:32:54.018Z,101557.63
2023-01-20T14:35:28.042Z,101572.09
2023-01-20T14:37:55.874Z,101576.25
2023-01-20T14:40:26.601Z,101584.28
2023-01-20T14:42:59.084Z,101582.94
2023-01-20T14:45:28.844Z,101587.66
2023-01-20T14:48:01.233Z,101583.25
2023-01-20T14:50:30.267Z,101600.63
2023-01-20T14:52:57.834Z,101599.13
2023-01-20T14:55:31.089Z,101604.69
2023-01-20T14:57:59.187Z,101604.00
2023-01-20T15:00:28.460Z,101609.44
2023-01-20T15:03:11.513Z,101610.28
2023-01-20T15:05:41.654Z,101613.59
2023-01-20T15:08:24.340Z,101622.22
2023-01-20T15:11:20.523Z,101625.00
2023-01-20T15:14:08.372Z,101629.44
2023-01-20T15:16:47.297Z,101643.34
2023-01-20T15:19:32.714Z,101641.97
2023-01-20T15:22:28.231Z,101653.34
2023-01-20T15:24:56.025Z,101655.03
2023-01-20T15:27:30.317Z,101664.91
2023-01-20T15:30:04.825Z,101671.81
2023-01-20T15:32:32.364Z,101677.53
2023-01-20T15:35:01.259Z,101682.56
2023-01-20T15:37:28.768Z,101692.28
2023-01-20T15:39:56.289Z,101688.09
2023-01-20T15:42:24.291Z,101697.28
2023-01-20T15:44:51.872Z,101696.72
2023-01-20T15:47:25.917Z,101700.88
2023-01-20T15:49:53.629Z,101707.41
2023-01-20T15:52:22.473Z,101712.28
2023-01-20T15:54:50.026Z,101719.09
2023-01-20T15:57:18.839Z,101725.22
2023-01-20T15:59:46.422Z,101727.84
2023-01-20T16:02:18.960Z,101734.53
2023-01-20T16:04:46.654Z,101737.72
2023-01-20T16:07:15.999Z,101743.16
2023-01-20T16:09:46.553Z,101743.72
2023-01-20T16:12:14.733Z,101746.63
2023-01-20T16:14:42.577Z,101754.81
2023-01-20T16:17:14.434Z,101754.53
2023-01-20T16:19:42.423Z,101762.06
2023-01-20T16:22:10.435Z,101764.97
2023-01-20T16:24:38.713Z,101762.59
2023-01-20T16:27:17.314Z,101773.84
2023-01-20T16:29:45.061Z,101785.94
2023-01-20T16:32:14.716Z,101780.38
2023-01-20T16:34:44.411Z,101785.09
2023-01-20T16:37:14.792Z,101782.03
2023-01-20T16:39:42.623Z,101793.13
2023-01-20T16:42:12.629Z,101795.94
2023-01-20T16:44:40.200Z,101795.66
2023-01-20T16:47:08.282Z,101797.06
2023-01-20T16:49:35.831Z,101805.78
2023-01-20T16:52:03.444Z,101802.69
2023-01-20T16:54:30.953Z,101807.97
2023-01-20T16:56:58.546Z,101813.84
2023-01-20T16:59:27.575Z,101820.91
2023-01-20T17:01:55.289Z,101825.22
2023-01-20T17:04:22.871Z,101835.38
2023-01-20T17:06:53.415Z,101836.78
2023-01-20T17:09:20.904Z,101834.03
2023-01-20T17:11:48.460Z,101843.19
2023-01-20T17:14:16.299Z,101844.28
2023-01-20T17:16:45.239Z,101841.94
2023-01-20T17:19:13.026Z,101846.97
2023-01-20T17:21:40.621Z,101853.22
2023-01-20T17:24:08.793Z,101867.09
2023-01-20T17:26:37.079Z,101855.97
2023-01-20T17:29:06.951Z,101866.53
2023-01-20T17:31:36.644Z,101878.59
2023-01-20T17:34:06.088Z,101880.25
2023-01-20T17:36:34.693Z,101884.59
2023-01-20T17:39:03.286Z,101891.66
2023-01-20T17:41:30.827Z,101901.56
2023-01-20T17:43:58.376Z,101897.94
2023-01-20T17:46:27.713Z,101895.63
2023-01-20T17:48:57.684Z,101904.50
2023-01-20T17:51:28.550Z,101908.50
2023-01-20T17:53:57.869Z,101910.97
2023-01-20T17:56:26.047Z,101915.38
2023-01-20T17:58:53.918Z,101921.50
2023-01-20T18:01:24.106Z,101927.34
2023-01-20T18:03:53.596Z,101931.53
2023-01-20T18:06:23.205Z,101936.44
2023-01-20T18:08:53.797Z,101937.19
2023-01-20T18:11:23.193Z,101948.59
2023-01-20T18:13:52.117Z,101950.69
2023-01-20T18:16:21.529Z,101960.84
2023-01-20T18:18:51.071Z,101967.53
2023-01-20T18:21:20.442Z,101969.03
2023-01-20T18:23:49.220Z,101965.97
2023-01-20T18:26:21.127Z,101971.94
2023-01-20T18:28:49.096Z,101983.03
2023-01-20T18:31:18.675Z,101982.19
2023-01-20T18:33:48.021Z,101981.63
2023-01-20T18:36:17.632Z,101994.06
2023-01-20T18:38:50.482Z,101985.59
2023-01-20T18:41:20.020Z,101997.22
2023-01-20T18:43:47.952Z,101999.16
2023-01-20T18:46:15.488Z,101996.91
2023-01-20T18:48:45.830Z,102005.41
2023-01-20T18:51:15.546Z,102007.91
2023-01-20T18:53:44.767Z,102014.97
2023-01-20T18:56:14.429Z,102014.59
2023-01-20T18:58:46.979Z,102015.56
2023-01-20T19:01:16.867Z,102022.97
2023-01-20T19:03:46.040Z,102032.69
2023-01-20T19:06:15.447Z,102028.25
2023-01-20T19:08:44.482Z,102031.81
2023-01-20T19:11:13.847Z,102040.94
2023-01-20T19:13:43.624Z,102031.22
2023-01-20T19:16:12.807Z,102029.81
2023-01-20T19:18:40.963Z,102032.63
2023-01-20T19:21:10.912Z,102039.75
2023-01-20T19:23:38.566Z,102041.56
2023-01-20T19:26:08.402Z,102047.97
2023-01-20T19:28:36.557Z,102056.59
2023-01-20T19:31:07.490Z,102058.22
2023-01-20T19:33:35.876Z,102066.25
2023-01-20T19:36:05.535Z,102069.66
2023-01-20T19:38:34.089Z,102068.69
2023-01-20T19:41:05.931Z,102075.63
2023-01-20T19:43:33.764Z,102079.25
2023-01-20T19:46:02.691Z,102082.84
2023-01-20T19:48:31.980Z,102086.97
2023-01-20T19:51:04.492Z,102091.91
2023-01-20T19:53:32.646Z,102087.72
2023-01-20T19:56:04.101Z,102099.22
2023-01-20T19:58:31.873Z,102096.53
2023-01-20T20:01:07.001Z,102103.25
2023-01-20T20:03:36.388Z,102107.56
2023-01-20T20:06:04.444Z,102111.88
2023-01-20T20:08:31.987Z,102112.66
2023-01-20T20:10:59.561Z,102113.84
2023-01-20T20:13:27.145Z,102116.69
2023-01-20T20:16:01.638Z,102117.25
2023-01-20T20:18:29.225Z,102123.44
2023-01-20T20:20:58.643Z,102134.06
2023-01-20T20:23:26.705Z,102125.81
2023-01-20T20:25:56.427Z,102135.56
2023-01-20T20:28:24.519Z,102138.22
2023-01-20T20:30:52.665Z,102140.16
2023-01-20T20:33:20.221Z,102143.25
2023-01-20T20:35:47.833Z,102145.63
2023-01-20T20:38:16.697Z,102148.03
2023-01-20T20:40:44.354Z,102148.53
2023-01-20T20:43:11.849Z,102152.84
2023-01-20T20:45:39.415Z,102154.91
2023-01-20T20:48:07.245Z,102163.22
2023-01-20T20:50:34.856Z,102166.75
2023-01-20T20:53:02.458Z,102165.22
2023-01-20T20:55:31.336Z,102171.44
2023-01-20T20:57:58.841Z,102170.63
2023-01-20T21:00:28.156Z,102172.44
2023-01-20T21:02:57.570Z,102172.78
2023-01-20T21:05:25.134Z,102178.56
2023-01-20T21:07:52.678Z,102184.22
2023-01-20T21:10:21.108Z,102184.22
2023-01-20T21:12:50.014Z,102187.69
2023-01-20T21:15:19.684Z,102189.94
2023-01-20T21:17:47.235Z,102193.06
2023-01-20T21:20:15.141Z,102194.47
2023-01-20T21:22:42.809Z,102206.13
2023-01-20T21:25:10.765Z,102196.78
2023-01-20T21:27:38.279Z,102204.97
2023-01-20T21:30:08.788Z,102215.50
2023-01-20T21:32:40.654Z,102218.25
2023-01-20T21:35:09.196Z,102219.09
2023-01-20T21:37:36.969Z,102227.72
2023-01-20T21:40:05.687Z,102221.59
2023-01-20T21:42:33.501Z,102225.81
2023-01-20T21:45:00.137Z,102216.19
2023-01-20T21:47:28.993Z,102232.41
2023-01-20T21:50:14.074Z,102225.78
2023-01-20T21:52:45.306Z,102227.47
2023-01-20T21:55:15.793Z,102244.28
2023-01-20T21:57:43.457Z,102242.09
2023-01-20T22:00:12.869Z,102245.44
2023-01-20T22:02:44.613Z,102245.44
2023-01-20T22:05:12.829Z,102243.81
2023-01-20T22:07:40.443Z,102253.63
2023-01-20T22:10:09.215Z,102253.03
2023-01-20T22:12:37.343Z,102253.63
2023-01-20T22:15:05.592Z,102255.69
2023-01-20T22:17:33.389Z,102260.25
2023-01-20T22:20:02.224Z,102263.50
2023-01-20T22:22:30.336Z,102265.88
2023-01-20T22:24:57.926Z,102260.16
2023-01-20T22:27:25.517Z,102261.34
2023-01-20T22:29:53.104Z,102268.88
2023-01-20T22:32:20.626Z,102262.69
2023-01-20T22:34:48.131Z,102266.88
2023-01-20T22:37:16.988Z,102263.78
2023-01-20T22:39:45.206Z,102261.97
2023-01-20T22:42:12.752Z,102271.69
2023-01-20T22:44:40.253Z,102273.34
2023-01-20T22:47:10.063Z,102274.34
2023-01-20T22:49:37.669Z,102268.81
2023-01-20T22:52:05.472Z,102276.97
2023-01-20T22:54:34.494Z,102269.91
2023-01-20T22:57:01.963Z,102277.81
2023-01-20T22:59:29.703Z,102278.41
2023-01-20T23:01:57.246Z,102279.63
2023-01-20T23:04:24.803Z,102285.97
2023-01-20T23:06:52.320Z,102287.03
2023-01-20T23:09:19.883Z,102290.78
2023-01-20T23:11:49.181Z,102289.69
2023-01-20T23:14:16.959Z,102293.03
2023-01-20T23:16:44.882Z,102301.19
2023-01-20T23:19:12.592Z,102302.16
2023-01-20T23:21:40.174Z,102310.41
2023-01-20T23:24:08.958Z,102307.00
2023-01-20T23:26:36.487Z,102306.31
2023-01-20T23:29:05.467Z,102312.28
2023-01-20T23:31:35.090Z,102316.72
2023-01-20T23:34:02.665Z,102327.53
2023-01-20T23:36:30.176Z,102326.19
2023-01-20T23:38:57.934Z,102327.16
2023-01-20T23:41:26.143Z,102334.59
2023-01-20T23:43:53.743Z,102334.72
2023-01-20T23:46:22.641Z,102342.66
2023-01-20T23:48:50.135Z,102347.09
2023-01-20T23:51:17.933Z,102345.91
2023-01-20T23:53:45.653Z,102345.91
2023-01-20T23:56:15.148Z,102345.69
2023-01-20T23:58:42.977Z,102350.59
